Time;durP1;ratioP1;P1;durP2;ratioP2;P2;SDS_P1;SDS_P2;PMS_P1;PMS_P2;Temp;Humidity;BMP_temperature;BMP_pressure;BME280_temperature;BME280_humidity;BME280_pressure;Samples;Min_cycle;Max_cycle;Signal;HPM_P1;HPM_P2
2021/01/27 00:00:21;;;;;;;19.55;13.10;;;2.00;99.90;;;;;;5101838;28;20201;-86
2021/01/27 00:02:48;;;;;;;22.58;13.45;;;1.90;99.90;;;;;;5102388;28;20226;-85
2021/01/27 00:05:17;;;;;;;22.65;14.93;;;1.90;99.90;;;;;;5103334;28;20186;-86
2021/01/27 00:07:44;;;;;;;21.35;14.95;;;2.00;99.90;;;;;;5102758;28;20227;-86
2021/01/27 00:10:13;;;;;;;21.17;14.07;;;2.00;99.90;;;;;;5102117;28;20698;-86
2021/01/27 00:12:39;;;;;;;22.02;14.88;;;1.90;99.90;;;;;;5113736;28;20220;-84
2021/01/27 00:15:09;;;;;;;23.75;15.05;;;1.90;99.90;;;;;;5118673;28;20186;-85
2021/01/27 00:17:37;;;;;;;27.90;13.88;;;1.90;99.90;;;;;;5119310;28;20257;-84
2021/01/27 00:20:05;;;;;;;24.27;15.27;;;1.90;99.90;;;;;;5113924;28;20233;-86
2021/01/27 00:22:31;;;;;;;29.33;16.27;;;2.00;99.90;;;;;;5103523;28;20226;-85
2021/01/27 00:24:57;;;;;;;24.25;14.90;;;2.00;99.90;;;;;;5103317;28;20213;-85
2021/01/27 00:27:24;;;;;;;26.27;15.82;;;2.00;99.90;;;;;;5102964;28;20206;-83
2021/01/27 00:29:51;;;;;;;27.98;16.02;;;2.00;99.90;;;;;;5102270;28;20202;-84
2021/01/27 00:32:17;;;;;;;30.17;17.90;;;2.00;99.90;;;;;;5107079;28;20239;-84
2021/01/27 00:34:43;;;;;;;25.63;16.52;;;2.00;99.90;;;;;;5119328;28;20201;-84
2021/01/27 00:37:10;;;;;;;22.98;16.25;;;2.00;99.90;;;;;;5119552;28;20201;-85
2021/01/27 00:39:36;;;;;;;27.65;17.25;;;2.00;99.90;;;;;;5119644;28;20188;-83
2021/01/27 00:42:03;;;;;;;25.20;16.42;;;2.00;99.90;;;;;;5119225;28;20248;-85
2021/01/27 00:44:30;;;;;;;28.92;16.20;;;2.00;99.90;;;;;;5112740;28;20197;-85
2021/01/27 00:46:56;;;;;;;26.85;16.30;;;2.10;99.90;;;;;;5104076;28;20208;-84
2021/01/27 00:49:23;;;;;;;22.25;14.68;;;2.10;99.90;;;;;;5100952;28;20208;-85
2021/01/27 00:51:50;;;;;;;24.88;15.32;;;2.00;99.90;;;;;;5100312;28;20233;-84
2021/01/27 00:54:16;;;;;;;24.15;15.10;;;2.10;99.90;;;;;;5101122;28;20304;-85
2021/01/27 00:56:43;;;;;;;26.85;16.73;;;2.10;99.90;;;;;;5100732;28;20204;-84
2021/01/27 00:59:09;;;;;;;26.90;16.48;;;2.10;99.90;;;;;;5101354;28;20205;-85
2021/01/27 01:01:36;;;;;;;26.02;16.27;;;2.00;99.90;;;;;;5106022;28;20221;-86
2021/01/27 01:04:03;;;;;;;26.00;16.50;;;2.00;99.90;;;;;;5110655;28;20228;-86
2021/01/27 01:06:29;;;;;;;27.08;17.35;;;2.00;99.90;;;;;;5111628;28;20197;-85
2021/01/27 01:08:57;;;;;;;27.77;15.60;;;2.00;99.90;;;;;;5102116;28;20212;-85
2021/01/27 01:11:23;;;;;;;24.88;17.02;;;2.10;99.90;;;;;;5101193;28;20231;-84
2021/01/27 01:13:50;;;;;;;25.63;16.52;;;2.00;99.90;;;;;;5100596;28;20241;-84
2021/01/27 01:16:16;;;;;;;21.83;15.18;;;1.90;99.90;;;;;;5100649;28;20242;-85
2021/01/27 01:18:43;;;;;;;27.27;17.05;;;2.00;99.90;;;;;;5101328;28;20212;-84
2021/01/27 01:21:09;;;;;;;26.65;15.35;;;1.90;99.90;;;;;;5100582;28;20292;-84
2021/01/27 01:23:36;;;;;;;22.73;15.98;;;1.90;99.90;;;;;;5108456;28;20198;-86
2021/01/27 01:26:02;;;;;;;25.95;14.75;;;1.90;99.90;;;;;;5118362;28;20270;-83
2021/01/27 01:28:28;;;;;;;23.38;14.60;;;2.00;99.90;;;;;;5115951;28;20726;-83
2021/01/27 01:30:55;;;;;;;23.25;15.27;;;2.00;99.90;;;;;;5103754;28;20303;-84
2021/01/27 01:33:23;;;;;;;24.48;15.77;;;1.90;99.90;;;;;;5101952;28;20247;-84
2021/01/27 01:35:50;;;;;;;19.50;13.77;;;1.90;99.90;;;;;;5101556;28;20669;-84
2021/01/27 01:38:17;;;;;;;23.83;13.98;;;1.90;99.90;;;;;;5101510;28;20327;-84
2021/01/27 01:40:45;;;;;;;26.45;16.83;;;1.90;99.90;;;;;;5100822;28;20189;-85
2021/01/27 01:43:13;;;;;;;31.35;14.23;;;1.90;99.90;;;;;;5103893;28;20248;-85
2021/01/27 01:45:42;;;;;;;22.85;13.43;;;1.90;99.90;;;;;;5104665;28;20229;-84
2021/01/27 01:48:22;;;;;;;24.63;13.40;;;1.80;99.90;;;;;;5104436;28;20194;-85
2021/01/27 01:50:54;;;;;;;19.80;13.48;;;1.90;99.90;;;;;;5101547;28;20670;-84
2021/01/27 01:53:22;;;;;;;29.30;16.13;;;1.90;99.90;;;;;;5101620;28;20289;-84
2021/01/27 01:55:49;;;;;;;23.23;14.95;;;1.80;99.90;;;;;;5109404;28;20185;-84
2021/01/27 01:58:16;;;;;;;23.70;14.60;;;1.80;99.90;;;;;;5119095;28;20193;-82
2021/01/27 02:00:43;;;;;;;26.95;14.13;;;1.80;99.90;;;;;;5111967;28;20261;-84
2021/01/27 02:03:11;;;;;;;24.38;14.60;;;1.80;99.90;;;;;;5104480;28;20221;-84
2021/01/27 02:05:38;;;;;;;21.17;13.85;;;1.70;99.90;;;;;;5101465;28;20198;-83
2021/01/27 02:08:06;;;;;;;22.08;12.95;;;1.70;99.90;;;;;;5098521;28;20692;-82
2021/01/27 02:10:32;;;;;;;22.17;13.13;;;1.70;99.90;;;;;;5098291;28;20202;-82
2021/01/27 02:13:29;;;;;;;23.45;14.02;;;1.70;99.90;;;;;;5097674;28;20232;-82
2021/01/27 02:16:10;;;;;;;26.35;13.48;;;1.60;99.90;;;;;;5099946;28;20189;-83
2021/01/27 02:18:51;;;;;;;28.40;16.85;;;1.60;99.90;;;;;;5106642;28;20182;-82
2021/01/27 02:21:56;;;;;;;22.77;13.48;;;1.50;99.90;;;;;;5118736;28;20225;-82
2021/01/27 02:24:59;;;;;;;26.90;14.77;;;1.60;99.90;;;;;;5071801;28;20177;-81
2021/01/27 02:27:31;;;;;;;21.75;13.77;;;1.50;99.90;;;;;;5109541;28;20208;-82
2021/01/27 02:30:37;;;;;;;24.80;13.90;;;1.50;99.90;;;;;;5112327;28;20186;-83
2021/01/27 02:33:34;;;;;;;21.83;13.98;;;1.40;99.90;;;;;;5115273;28;20225;-83
2021/01/27 02:36:09;;;;;;;20.25;15.80;;;1.40;99.90;;;;;;5113225;28;20205;-84
2021/01/27 02:38:40;;;;;;;27.60;15.75;;;1.30;99.90;;;;;;5104402;28;20185;-84
2021/01/27 02:41:11;;;;;;;27.33;14.15;;;1.30;99.90;;;;;;5101490;28;20230;-84
2021/01/27 02:43:40;;;;;;;22.90;13.52;;;1.20;99.90;;;;;;5103492;28;20276;-85
2021/01/27 02:46:14;;;;;;;26.83;14.10;;;1.20;99.90;;;;;;5102511;28;20212;-85
2021/01/27 02:48:47;;;;;;;23.38;14.02;;;1.10;99.90;;;;;;5102979;28;20208;-87
2021/01/27 02:51:19;;;;;;;24.85;15.38;;;1.10;99.90;;;;;;5102226;28;20193;-85
2021/01/27 02:53:51;;;;;;;25.23;15.95;;;1.10;99.90;;;;;;5102610;28;20206;-85
2021/01/27 02:56:23;;;;;;;32.85;15.20;;;1.00;99.90;;;;;;5102345;28;20190;-85
2021/01/27 02:58:57;;;;;;;25.63;15.30;;;0.90;99.90;;;;;;5103317;28;20195;-85
2021/01/27 03:01:30;;;;;;;26.05;15.82;;;0.90;99.90;;;;;;5102662;28;20226;-85
2021/01/27 03:04:05;;;;;;;25.08;15.68;;;0.90;99.90;;;;;;5102191;28;20205;-85
2021/01/27 03:06:33;;;;;;;27.23;15.85;;;0.80;99.90;;;;;;5102052;28;20197;-85
2021/01/27 03:09:06;;;;;;;26.38;15.10;;;0.80;99.90;;;;;;5105150;28;20217;-84
2021/01/27 03:11:35;;;;;;;28.73;15.00;;;0.80;99.90;;;;;;5101275;28;20247;-85
2021/01/27 03:14:02;;;;;;;24.27;15.18;;;0.80;99.90;;;;;;5101193;28;20237;-84
2021/01/27 03:16:31;;;;;;;27.35;16.45;;;0.80;99.90;;;;;;5101148;28;20209;-84
2021/01/27 03:19:03;;;;;;;25.10;16.08;;;0.80;99.90;;;;;;5102026;28;20197;-85
2021/01/27 03:21:38;;;;;;;29.52;17.08;;;0.80;99.90;;;;;;5101692;28;20221;-85
2021/01/27 03:24:08;;;;;;;25.48;15.43;;;0.80;99.90;;;;;;5106572;28;20268;-84
2021/01/27 03:26:43;;;;;;;27.38;17.45;;;0.70;99.90;;;;;;5108311;28;20220;-84
2021/01/27 03:29:21;;;;;;;31.42;15.93;;;0.70;99.90;;;;;;5105734;28;20196;-85
2021/01/27 03:31:47;;;;;;;29.48;16.20;;;0.70;99.90;;;;;;5102700;28;20232;-85
2021/01/27 03:34:20;;;;;;;34.72;18.23;;;0.70;99.90;;;;;;5102697;28;20229;-85
2021/01/27 03:36:53;;;;;;;32.03;18.77;;;0.60;99.90;;;;;;5101755;28;20190;-84
2021/01/27 03:39:21;;;;;;;26.20;15.88;;;0.60;99.90;;;;;;5101698;28;20272;-84
2021/01/27 03:41:51;;;;;;;24.55;15.52;;;0.60;99.90;;;;;;5102793;28;20274;-86
2021/01/27 03:44:23;;;;;;;27.60;15.80;;;0.60;99.90;;;;;;5102250;28;20205;-86
2021/01/27 03:47:02;;;;;;;32.22;16.88;;;0.50;99.90;;;;;;5101278;28;20186;-86
2021/01/27 03:49:32;;;;;;;27.50;17.05;;;0.50;99.90;;;;;;5101341;28;20196;-86
2021/01/27 03:52:04;;;;;;;23.08;15.38;;;0.60;99.90;;;;;;5102158;28;20222;-85
2021/01/27 03:54:34;;;;;;;38.25;17.85;;;0.50;99.90;;;;;;5101459;28;20193;-86
2021/01/27 03:57:03;;;;;;;36.63;16.45;;;0.50;99.90;;;;;;5102816;28;20607;-85
2021/01/27 03:59:30;;;;;;;30.25;17.63;;;0.50;99.90;;;;;;5101272;28;20202;-85
2021/01/27 04:01:58;;;;;;;34.70;17.75;;;0.50;99.90;;;;;;5102280;28;20726;-85
2021/01/27 04:04:26;;;;;;;34.90;19.55;;;0.50;99.90;;;;;;5102136;28;20202;-85
2021/01/27 04:06:53;;;;;;;40.22;21.48;;;0.50;99.90;;;;;;5101136;28;20963;-85
2021/01/27 04:09:20;;;;;;;31.27;19.25;;;0.50;99.90;;;;;;5102764;28;20201;-85
2021/01/27 04:12:03;;;;;;;31.65;17.48;;;0.50;99.90;;;;;;5355334;22;20223;-82
2021/01/27 04:14:46;;;;;;;34.90;18.83;;;0.50;99.90;;;;;;5082650;28;20609;-84
2021/01/27 04:17:32;;;;;;;37.88;19.75;;;0.50;99.90;;;;;;5085411;28;20198;-84
2021/01/27 04:19:59;;;;;;;35.63;18.23;;;0.50;99.90;;;;;;5082909;28;20206;-85
2021/01/27 04:22:25;;;;;;;42.35;21.60;;;0.50;99.90;;;;;;5082188;28;20295;-85
2021/01/27 04:24:52;;;;;;;37.45;20.60;;;0.60;99.90;;;;;;5083268;28;20194;-84
2021/01/27 04:27:19;;;;;;;35.15;21.48;;;0.50;99.90;;;;;;5082773;28;20240;-84
2021/01/27 04:29:46;;;;;;;37.15;21.92;;;0.50;99.90;;;;;;5081244;28;20487;-85
2021/01/27 04:32:12;;;;;;;39.05;21.25;;;0.50;99.90;;;;;;5081438;28;20226;-85
2021/01/27 04:34:38;;;;;;;36.38;21.23;;;0.50;99.90;;;;;;5090309;28;20198;-84
2021/01/27 04:37:04;;;;;;;35.17;19.48;;;0.50;99.90;;;;;;5097837;28;20212;-84
2021/01/27 04:39:31;;;;;;;32.70;19.48;;;0.50;99.90;;;;;;5096471;28;20218;-84
2021/01/27 04:41:58;;;;;;;35.47;18.05;;;0.50;99.90;;;;;;5080759;28;20222;-85
2021/01/27 04:44:25;;;;;;;42.08;21.95;;;0.60;99.90;;;;;;5084789;28;20603;-85
2021/01/27 04:47:02;;;;;;;40.42;22.63;;;0.60;99.90;;;;;;5081486;28;20445;-85
2021/01/27 04:49:34;;;;;;;40.88;23.48;;;0.70;99.90;;;;;;5080657;28;20803;-85
2021/01/27 04:52:07;;;;;;;39.63;23.77;;;0.80;99.90;;;;;;5080423;28;20470;-85
2021/01/27 04:55:06;;;;;;;41.20;22.75;;;0.80;99.90;;;;;;5081462;28;20456;-85
2021/01/27 04:57:57;;;;;;;41.00;22.27;;;0.80;99.90;;;;;;5074660;28;20678;-85
2021/01/27 05:00:44;;;;;;;37.45;21.17;;;0.90;99.90;;;;;;5080694;28;20541;-85
2021/01/27 05:03:35;;;;;;;39.97;22.60;;;0.90;99.90;;;;;;5082601;28;20430;-85
2021/01/27 05:06:07;;;;;;;40.42;22.00;;;0.90;99.90;;;;;;5080779;28;20224;-85
2021/01/27 05:08:40;;;;;;;38.50;22.90;;;1.00;99.90;;;;;;5080761;28;20586;-85
2021/01/27 05:11:09;;;;;;;43.90;25.63;;;1.00;99.90;;;;;;5080195;28;20258;-85
2021/01/27 05:13:39;;;;;;;40.42;24.25;;;1.10;99.90;;;;;;5081057;28;20226;-85
2021/01/27 05:16:10;;;;;;;48.08;24.20;;;1.10;99.90;;;;;;5079962;28;20212;-85
2021/01/27 05:18:36;;;;;;;44.72;24.58;;;1.10;99.90;;;;;;5080994;28;20187;-85
2021/01/27 05:21:03;;;;;;;49.33;25.20;;;1.00;99.90;;;;;;5081537;28;20225;-85
2021/01/27 05:23:29;;;;;;;45.70;25.83;;;1.10;99.90;;;;;;5080360;28;20214;-85
2021/01/27 05:26:03;;;;;;;52.47;31.17;;;1.10;99.90;;;;;;5081670;28;20438;-84
2021/01/27 05:28:33;;;;;;;47.22;26.20;;;1.10;99.90;;;;;;5092957;28;20195;-85
2021/01/27 05:31:00;;;;;;;49.10;29.98;;;1.10;99.90;;;;;;5081955;28;20197;-85
2021/01/27 05:33:43;;;;;;;47.33;26.02;;;1.20;99.90;;;;;;5080673;28;20700;-85
2021/01/27 05:36:14;;;;;;;47.78;28.33;;;1.20;99.90;;;;;;5080064;28;20438;-85
2021/01/27 05:38:40;;;;;;;58.83;33.10;;;1.20;99.90;;;;;;5080323;28;20438;-85
2021/01/27 05:41:13;;;;;;;49.47;29.52;;;1.20;99.90;;;;;;5080790;28;20444;-85
2021/01/27 05:43:40;;;;;;;48.35;27.13;;;1.20;99.90;;;;;;5081589;28;20194;-85
2021/01/27 05:46:14;;;;;;;48.75;27.95;;;1.20;99.90;;;;;;5080535;28;20202;-84
2021/01/27 05:48:46;;;;;;;49.47;29.17;;;1.20;99.90;;;;;;5084901;28;20193;-84
2021/01/27 05:51:16;;;;;;;49.90;28.85;;;1.30;99.90;;;;;;5083323;28;20206;-84
2021/01/27 05:53:43;;;;;;;52.92;29.20;;;1.20;99.90;;;;;;5080503;28;20214;-85
2021/01/27 05:56:31;;;;;;;49.72;26.75;;;1.20;99.90;;;;;;5080907;28;20217;-84
2021/01/27 05:59:01;;;;;;;49.22;27.00;;;1.20;99.90;;;;;;5080948;28;20199;-85
2021/01/27 06:01:34;;;;;;;51.53;30.05;;;1.20;99.90;;;;;;5080445;28;20225;-85
2021/01/27 06:04:03;;;;;;;47.97;28.92;;;1.20;99.90;;;;;;5081116;28;20182;-85
2021/01/27 06:06:33;;;;;;;55.45;29.10;;;1.30;99.90;;;;;;5081486;28;20202;-85
2021/01/27 06:09:01;;;;;;;55.47;28.48;;;1.40;99.90;;;;;;5080735;28;20206;-85
2021/01/27 06:11:28;;;;;;;54.22;28.70;;;1.40;99.90;;;;;;5083658;28;20270;-85
2021/01/27 06:14:06;;;;;;;52.17;28.20;;;1.40;99.90;;;;;;5086096;28;20228;-84
2021/01/27 06:16:41;;;;;;;60.38;31.27;;;1.50;99.90;;;;;;5087180;28;20194;-85
2021/01/27 06:19:15;;;;;;;53.95;30.40;;;1.50;99.90;;;;;;5087733;28;20198;-84
2021/01/27 06:22:09;;;;;;;53.83;29.40;;;1.60;99.90;;;;;;5094829;28;20229;-84
2021/01/27 06:24:52;;;;;;;47.58;29.00;;;1.60;99.90;;;;;;5083015;28;20191;-85
2021/01/27 06:27:52;;;;;;;48.08;27.83;;;1.70;99.90;;;;;;5081488;28;20194;-85
2021/01/27 06:30:23;;;;;;;51.60;30.23;;;1.80;99.90;;;;;;5081392;28;20203;-85
2021/01/27 06:33:39;;;;;;;49.08;27.73;;;1.70;99.90;;;;;;5080306;28;20218;-85
2021/01/27 06:36:24;;;;;;;44.17;27.40;;;1.80;99.90;;;;;;5081326;28;20202;-85
2021/01/27 06:39:07;;;;;;;43.25;26.38;;;1.80;99.90;;;;;;5080745;28;20190;-85
2021/01/27 06:41:56;;;;;;;51.58;29.30;;;1.80;99.90;;;;;;5080439;28;20226;-85
2021/01/27 06:44:35;;;;;;;47.45;28.95;;;1.70;99.90;;;;;;5080131;28;20183;-85
2021/01/27 06:47:22;;;;;;;44.78;26.02;;;1.80;99.90;;;;;;5079717;28;20189;-85
2021/01/27 06:50:14;;;;;;;43.83;25.27;;;1.70;99.90;;;;;;5079884;28;20190;-85
2021/01/27 06:53:12;;;;;;;47.05;27.20;;;1.80;99.90;;;;;;5079326;28;20225;-85
2021/01/27 06:56:00;;;;;;;44.83;25.80;;;1.60;99.90;;;;;;5080985;28;20198;-84
2021/01/27 06:58:51;;;;;;;51.97;29.67;;;1.70;99.90;;;;;;5079777;28;20190;-84
2021/01/27 07:01:31;;;;;;;49.80;28.98;;;1.70;99.90;;;;;;5080200;28;20263;-84
2021/01/27 07:04:15;;;;;;;42.35;23.95;;;1.60;99.90;;;;;;5080942;28;20182;-85
2021/01/27 07:07:09;;;;;;;44.85;25.70;;;1.70;99.90;;;;;;5081260;28;20244;-84
2021/01/27 07:10:09;;;;;;;54.08;28.23;;;1.70;99.90;;;;;;5084187;28;20229;-84
2021/01/27 07:12:40;;;;;;;47.45;27.27;;;1.70;99.90;;;;;;5079932;28;20234;-85
2021/01/27 07:15:20;;;;;;;55.88;28.45;;;1.70;99.90;;;;;;5081028;28;20240;-85
2021/01/27 07:18:19;;;;;;;52.78;30.13;;;1.70;99.90;;;;;;5079478;28;20190;-84
2021/01/27 07:20:50;;;;;;;49.55;27.60;;;1.70;99.90;;;;;;5079114;28;20261;-84
2021/01/27 07:23:22;;;;;;;48.67;26.58;;;1.70;99.90;;;;;;5079295;28;20219;-85
2021/01/27 07:26:02;;;;;;;50.05;27.92;;;1.60;99.90;;;;;;5079243;28;20654;-85
2021/01/27 07:28:36;;;;;;;43.95;27.00;;;1.70;99.90;;;;;;5080096;28;20643;-85
2021/01/27 07:31:11;;;;;;;44.40;26.90;;;1.60;99.90;;;;;;5089449;28;20197;-84
2021/01/27 07:33:42;;;;;;;47.60;26.50;;;1.60;99.90;;;;;;5094389;28;20210;-85
2021/01/27 07:36:27;;;;;;;49.08;27.77;;;1.70;99.90;;;;;;5082849;28;20187;-84
2021/01/27 07:38:57;;;;;;;41.28;25.70;;;1.80;99.90;;;;;;5082334;28;20699;-84
2021/01/27 07:41:31;;;;;;;50.00;27.02;;;1.80;99.90;;;;;;5097061;28;20214;-83
2021/01/27 07:44:02;;;;;;;45.70;24.45;;;1.90;99.90;;;;;;5100703;28;20170;-83
2021/01/27 07:46:34;;;;;;;46.40;27.08;;;1.90;99.90;;;;;;5086616;28;20191;-84
2021/01/27 07:49:03;;;;;;;40.88;24.90;;;1.70;99.90;;;;;;5082551;28;20190;-84
2021/01/27 07:51:32;;;;;;;45.60;26.27;;;1.70;99.90;;;;;;5083229;28;20655;-84
2021/01/27 07:54:04;;;;;;;40.47;26.40;;;1.80;99.90;;;;;;5081610;28;20218;-84
2021/01/27 07:56:34;;;;;;;37.58;23.33;;;1.70;99.90;;;;;;5088796;28;20191;-84
2021/01/27 07:59:09;;;;;;;43.00;24.70;;;1.80;99.90;;;;;;5085040;28;20203;-84
2021/01/27 08:01:42;;;;;;;42.58;23.63;;;1.80;99.90;;;;;;5082758;28;20229;-85
2021/01/27 08:04:20;;;;;;;42.72;24.88;;;1.80;99.90;;;;;;5081997;28;20687;-84
2021/01/27 08:06:50;;;;;;;38.80;25.25;;;1.70;99.90;;;;;;5081279;28;20186;-85
2021/01/27 08:09:31;;;;;;;39.03;24.83;;;1.70;99.90;;;;;;5081524;28;20681;-85
2021/01/27 08:12:17;;;;;;;38.42;24.50;;;1.70;99.90;;;;;;5081339;28;20226;-85
2021/01/27 08:14:58;;;;;;;43.90;23.70;;;1.80;99.90;;;;;;5081138;28;20659;-85
2021/01/27 08:17:39;;;;;;;43.28;24.45;;;1.70;99.90;;;;;;5081327;28;20260;-84
2021/01/27 08:20:20;;;;;;;40.30;25.25;;;1.80;99.90;;;;;;5081366;28;20202;-84
2021/01/27 08:22:48;;;;;;;42.90;24.27;;;1.80;99.90;;;;;;5082313;28;20248;-85
2021/01/27 08:25:48;;;;;;;41.10;25.55;;;1.90;99.90;;;;;;5082331;28;20210;-84
2021/01/27 08:28:23;;;;;;;39.80;23.95;;;1.80;99.90;;;;;;5081621;28;20214;-85
2021/01/27 08:31:32;;;;;;;45.58;25.23;;;1.80;99.90;;;;;;5082127;28;20224;-85
2021/01/27 08:33:59;;;;;;;44.03;24.95;;;1.80;99.90;;;;;;5081998;28;20249;-84
2021/01/27 08:37:01;;;;;;;46.92;24.50;;;1.70;99.90;;;;;;5080936;28;20229;-85
2021/01/27 08:39:27;;;;;;;37.35;22.08;;;1.70;99.90;;;;;;5081399;28;20239;-84
2021/01/27 08:41:57;;;;;;;35.85;21.77;;;2.00;99.90;;;;;;5080457;28;20571;-84
2021/01/27 08:44:33;;;;;;;35.55;22.80;;;3.60;99.90;;;;;;5078306;28;20202;-85
2021/01/27 08:47:02;;;;;;;33.63;22.45;;;3.50;99.90;;;;;;5088303;28;20178;-84
2021/01/27 08:49:50;;;;;;;36.22;23.05;;;2.80;99.90;;;;;;5093226;28;20186;-85
2021/01/27 08:52:36;;;;;;;37.58;23.67;;;2.60;99.90;;;;;;5083551;28;20219;-85
2021/01/27 08:55:33;;;;;;;36.45;22.15;;;2.40;99.90;;;;;;5080576;28;20251;-85
2021/01/27 08:58:20;;;;;;;37.50;22.92;;;2.30;99.90;;;;;;5079409;28;20201;-85
2021/01/27 09:00:48;;;;;;;37.63;22.85;;;2.20;99.90;;;;;;5081287;28;20202;-85
2021/01/27 09:03:59;;;;;;;37.55;24.52;;;2.20;99.90;;;;;;5081343;28;20226;-84
2021/01/27 09:06:49;;;;;;;34.15;23.92;;;2.10;99.90;;;;;;5081126;28;20195;-84
2021/01/27 09:09:36;;;;;;;39.72;24.95;;;2.10;99.90;;;;;;5080781;28;20220;-84
2021/01/27 09:12:08;;;;;;;36.15;24.95;;;2.20;99.90;;;;;;5085708;28;20280;-84
2021/01/27 09:14:35;;;;;;;41.83;25.08;;;2.10;99.90;;;;;;5083505;28;20211;-84
2021/01/27 09:17:05;;;;;;;40.47;23.88;;;2.10;99.90;;;;;;5083839;28;20203;-84
2021/01/27 09:19:33;;;;;;;40.28;25.20;;;2.10;99.90;;;;;;5084646;28;20190;-84
2021/01/27 09:22:16;;;;;;;36.22;23.27;;;2.10;99.90;;;;;;5093213;28;20209;-83
2021/01/27 09:24:44;;;;;;;40.40;25.38;;;2.10;99.90;;;;;;5089287;28;20211;-84
2021/01/27 09:27:30;;;;;;;45.90;26.45;;;2.00;99.90;;;;;;5083184;28;20202;-84
2021/01/27 09:30:00;;;;;;;38.10;25.98;;;2.00;99.90;;;;;;5081981;28;20201;-84
2021/01/27 09:32:28;;;;;;;47.35;27.20;;;2.10;99.90;;;;;;5081061;28;20572;-84
2021/01/27 09:34:54;;;;;;;44.78;27.48;;;2.10;99.90;;;;;;5081311;28;20264;-84
2021/01/27 09:37:24;;;;;;;48.13;27.15;;;2.10;99.90;;;;;;5083765;28;20210;-84
2021/01/27 09:39:53;;;;;;;43.78;27.65;;;2.20;99.90;;;;;;5080296;28;20198;-83
2021/01/27 09:42:24;;;;;;;42.17;24.90;;;2.30;99.90;;;;;;5080964;28;20226;-84
2021/01/27 09:44:57;;;;;;;38.92;25.75;;;2.40;99.90;;;;;;5080263;28;20240;-84
2021/01/27 09:47:24;;;;;;;37.40;24.83;;;2.50;99.90;;;;;;5080324;28;20212;-84
2021/01/27 09:49:54;;;;;;;42.42;24.08;;;2.60;99.90;;;;;;5081779;28;20678;-84
2021/01/27 09:52:21;;;;;;;36.35;22.75;;;2.70;99.90;;;;;;5087124;28;20222;-83
2021/01/27 09:54:51;;;;;;;34.28;22.65;;;2.60;99.90;;;;;;5084120;28;20301;-83
2021/01/27 09:57:20;;;;;;;39.35;25.10;;;2.70;99.90;;;;;;5086354;28;20203;-86
2021/01/27 09:59:51;;;;;;;37.38;23.88;;;2.80;99.90;;;;;;5086039;28;20647;-86
2021/01/27 10:02:26;;;;;;;35.83;23.10;;;2.80;99.90;;;;;;5087507;28;20314;-86
2021/01/27 10:04:53;;;;;;;37.03;21.45;;;2.80;99.90;;;;;;5093736;28;20177;-85
2021/01/27 10:07:24;;;;;;;37.50;22.65;;;2.80;99.90;;;;;;5097904;28;20199;-86
2021/01/27 10:09:56;;;;;;;33.70;21.48;;;2.80;99.90;;;;;;5098339;28;20171;-86
2021/01/27 10:12:25;;;;;;;38.17;23.15;;;2.90;99.90;;;;;;5120772;22;20221;-84
2021/01/27 10:15:05;;;;;;;31.55;19.58;;;2.90;99.90;;;;;;5101178;28;20182;-84
2021/01/27 10:17:31;;;;;;;29.70;20.55;;;2.90;99.90;;;;;;5101024;28;20512;-84
2021/01/27 10:20:18;;;;;;;33.15;21.83;;;2.80;99.90;;;;;;5101539;28;20208;-84
2021/01/27 10:22:54;;;;;;;34.35;22.45;;;2.90;99.90;;;;;;5100807;28;20713;-84
2021/01/27 10:25:33;;;;;;;29.05;19.48;;;2.90;99.90;;;;;;5110281;28;20193;-84
2021/01/27 10:28:18;;;;;;;32.20;21.15;;;3.00;99.90;;;;;;5110287;28;20190;-85
2021/01/27 10:30:54;;;;;;;30.00;20.63;;;3.10;99.90;;;;;;5106314;28;20264;-85
2021/01/27 10:33:47;;;;;;;32.38;21.20;;;3.10;99.90;;;;;;5102257;28;20594;-85
2021/01/27 10:36:43;;;;;;;30.75;20.33;;;3.20;99.90;;;;;;5082430;28;20214;-84
2021/01/27 10:39:18;;;;;;;30.58;22.02;;;3.20;99.90;;;;;;5102338;28;20202;-85
2021/01/27 10:41:46;;;;;;;31.73;20.00;;;3.20;99.90;;;;;;5101580;28;20185;-84
2021/01/27 10:44:29;;;;;;;31.48;20.50;;;3.20;99.90;;;;;;5101034;28;20221;-84
2021/01/27 10:46:59;;;;;;;32.05;22.70;;;3.20;99.90;;;;;;5101808;28;20181;-85
2021/01/27 10:49:26;;;;;;;33.38;21.98;;;3.30;99.90;;;;;;5101553;28;20198;-85
2021/01/27 10:51:59;;;;;;;37.13;23.08;;;3.30;99.90;;;;;;5101608;28;20212;-84
2021/01/27 10:54:26;;;;;;;35.10;21.17;;;3.30;99.90;;;;;;5101448;28;20216;-85
2021/01/27 10:56:54;;;;;;;27.98;19.48;;;3.40;99.90;;;;;;5100722;28;20213;-84
2021/01/27 10:59:20;;;;;;;27.02;19.52;;;3.40;99.90;;;;;;5101372;28;20552;-85
2021/01/27 11:01:47;;;;;;;30.77;20.08;;;3.50;99.90;;;;;;5110893;28;20202;-83
2021/01/27 11:04:13;;;;;;;27.38;19.58;;;3.50;99.90;;;;;;5112390;28;20578;-85
2021/01/27 11:06:40;;;;;;;30.88;19.67;;;3.60;99.90;;;;;;5105940;28;20197;-85
2021/01/27 11:09:08;;;;;;;29.77;18.00;;;3.60;99.90;;;;;;5104396;28;20198;-85
2021/01/27 11:11:34;;;;;;;30.75;21.35;;;3.60;99.90;;;;;;5103643;28;20205;-84
2021/01/27 11:14:00;;;;;;;30.38;21.52;;;3.70;99.90;;;;;;5103512;28;20226;-84
2021/01/27 11:16:27;;;;;;;28.52;19.27;;;3.80;99.90;;;;;;5104449;28;20206;-87
2021/01/27 11:18:53;;;;;;;25.13;19.48;;;3.70;99.90;;;;;;5104750;28;20216;-86
2021/01/27 11:21:19;;;;;;;29.92;19.60;;;3.80;99.90;;;;;;5112677;28;20264;-86
2021/01/27 11:23:46;;;;;;;32.22;21.20;;;3.90;99.90;;;;;;5105851;28;20218;-85
2021/01/27 11:26:18;;;;;;;23.58;17.73;;;3.90;99.90;;;;;;5106437;28;20197;-85
2021/01/27 11:28:46;;;;;;;27.08;20.75;;;3.80;99.90;;;;;;5114573;28;20645;-85
2021/01/27 11:31:13;;;;;;;26.02;18.90;;;3.90;99.90;;;;;;5112261;28;20197;-85
2021/01/27 11:33:39;;;;;;;27.15;16.83;;;4.10;99.90;;;;;;5106329;28;20248;-86
2021/01/27 11:36:06;;;;;;;28.40;18.55;;;4.00;99.90;;;;;;5107462;28;20202;-85
2021/01/27 11:38:32;;;;;;;25.48;17.05;;;4.00;99.90;;;;;;5104703;28;20202;-85
2021/01/27 11:40:59;;;;;;;26.80;18.23;;;4.00;99.90;;;;;;5110378;28;20201;-85
2021/01/27 11:43:26;;;;;;;30.40;19.77;;;3.90;99.90;;;;;;5111869;28;20221;-86
2021/01/27 11:45:52;;;;;;;28.27;17.15;;;4.00;99.90;;;;;;5110611;28;20202;-86
2021/01/27 11:48:19;;;;;;;29.75;17.13;;;4.00;99.90;;;;;;5110496;28;20205;-86
2021/01/27 11:50:45;;;;;;;33.35;20.20;;;4.10;99.90;;;;;;5111364;28;20217;-84
2021/01/27 11:53:12;;;;;;;27.63;18.88;;;4.20;99.90;;;;;;5106362;28;20225;-86
2021/01/27 11:55:41;;;;;;;24.45;17.48;;;4.40;99.90;;;;;;5115837;28;20251;-86
2021/01/27 11:58:10;;;;;;;26.95;17.50;;;4.60;99.90;;;;;;5113624;28;20190;-85
2021/01/27 12:00:37;;;;;;;23.08;16.80;;;5.00;99.90;;;;;;5105498;28;20220;-85
2021/01/27 12:03:04;;;;;;;23.77;16.98;;;5.00;99.90;;;;;;5109123;28;20225;-85
2021/01/27 12:05:32;;;;;;;23.88;15.57;;;5.10;99.90;;;;;;5119343;28;20208;-86
2021/01/27 12:07:58;;;;;;;22.50;15.82;;;5.00;99.90;;;;;;5119755;28;20212;-85
2021/01/27 12:10:25;;;;;;;21.02;16.73;;;5.00;99.90;;;;;;5115604;28;20666;-86
2021/01/27 12:12:51;;;;;;;18.80;15.07;;;5.40;99.90;;;;;;5118475;28;20307;-85
2021/01/27 12:15:18;;;;;;;21.17;14.95;;;5.30;99.90;;;;;;5108935;28;20216;-86
2021/01/27 12:17:45;;;;;;;23.52;16.48;;;5.20;99.90;;;;;;5108709;28;20273;-85
2021/01/27 12:20:12;;;;;;;21.42;17.10;;;5.30;99.90;;;;;;5106480;28;20228;-84
2021/01/27 12:22:38;;;;;;;22.17;16.85;;;5.40;99.90;;;;;;5111469;28;20217;-83
2021/01/27 12:25:06;;;;;;;24.88;17.13;;;5.40;99.90;;;;;;5104054;28;20294;-85
2021/01/27 12:27:33;;;;;;;22.02;15.35;;;5.40;99.90;;;;;;5111486;28;20264;-86
2021/01/27 12:29:59;;;;;;;24.90;16.65;;;5.20;99.90;;;;;;5107593;28;20201;-86
2021/01/27 12:32:25;;;;;;;23.88;15.30;;;5.30;99.90;;;;;;5106619;28;20222;-85
2021/01/27 12:35:01;;;;;;;23.80;14.85;;;5.20;99.90;;;;;;5115640;28;20234;-87
2021/01/27 12:37:28;;;;;;;19.75;13.73;;;5.20;99.90;;;;;;5120537;28;20169;-84
2021/01/27 12:39:54;;;;;;;13.90;11.55;;;5.30;99.90;;;;;;5117916;28;20205;-85
2021/01/27 12:42:22;;;;;;;18.50;12.65;;;5.40;99.90;;;;;;5108028;28;20260;-85
2021/01/27 12:44:49;;;;;;;19.25;12.75;;;5.20;99.90;;;;;;5114727;28;20192;-86
2021/01/27 12:47:17;;;;;;;23.10;18.52;;;5.40;99.90;;;;;;5120307;28;20196;-83
2021/01/27 12:49:43;;;;;;;24.92;17.63;;;5.40;99.90;;;;;;5118829;28;20193;-86
2021/01/27 12:52:10;;;;;;;17.40;13.13;;;5.40;99.90;;;;;;5116833;28;20209;-85
2021/01/27 12:54:37;;;;;;;21.90;13.35;;;5.60;99.90;;;;;;5112612;28;20213;-87
2021/01/27 12:57:03;;;;;;;15.93;12.63;;;5.50;99.90;;;;;;5115270;28;20249;-85
2021/01/27 12:59:30;;;;;;;17.33;11.70;;;5.50;99.90;;;;;;5116017;28;20209;-86
2021/01/27 13:01:57;;;;;;;17.08;11.63;;;5.50;99.90;;;;;;5112727;28;20217;-84
2021/01/27 13:04:23;;;;;;;17.77;11.98;;;5.50;99.90;;;;;;5109806;28;20194;-85